createdAt,value
2023-01-21T00:00:00.641Z,998.53
2023-01-21T00:01:00.708Z,998.56
2023-01-21T00:02:01.324Z,998.54
2023-01-21T00:03:00.584Z,998.52
2023-01-21T00:04:00.555Z,998.56
2023-01-21T00:05:00.535Z,998.57
2023-01-21T00:06:00.527Z,998.59
2023-01-21T00:07:00.501Z,998.64
2023-01-21T00:08:02.577Z,998.66
2023-01-21T00:09:00.600Z,998.67
2023-01-21T00:10:00.434Z,998.66
2023-01-21T00:11:00.424Z,998.66
2023-01-21T00:12:00.393Z,998.72
2023-01-21T00:13:00.393Z,998.69
2023-01-21T00:14:00.355Z,998.72
2023-01-21T00:15:00.637Z,998.72
2023-01-21T00:16:00.383Z,998.76
2023-01-21T00:17:00.287Z,998.74
2023-01-21T00:18:00.268Z,998.76
2023-01-21T00:19:00.248Z,998.76
2023-01-21T00:20:00.236Z,998.76
2023-01-21T00:21:00.208Z,998.72
2023-01-21T00:22:00.191Z,998.73
2023-01-21T00:23:00.168Z,998.75
2023-01-21T00:24:00.144Z,998.74
2023-01-21T00:25:00.322Z,998.75
2023-01-21T00:26:00.147Z,998.79
2023-01-21T00:27:00.193Z,998.68
2023-01-21T00:28:00.114Z,998.76
2023-01-21T00:29:00.037Z,998.75
2023-01-21T00:30:00.032Z,998.81
2023-01-21T00:31:00.155Z,998.79
2023-01-21T00:32:00.015Z,998.81
2023-01-21T00:32:59.961Z,998.82
2023-01-21T00:33:59.935Z,998.85
2023-01-21T00:34:59.920Z,998.81
2023-01-21T00:35:59.903Z,998.87
2023-01-21T00:36:59.911Z,998.91
2023-01-21T00:37:59.876Z,998.86
2023-01-21T00:38:59.832Z,998.93
2023-01-21T00:39:59.965Z,998.90
2023-01-21T00:40:59.854Z,998.91
2023-01-21T00:41:59.840Z,998.91
2023-01-21T00:42:59.753Z,998.93
2023-01-21T00:43:59.730Z,998.95
2023-01-21T00:44:59.715Z,998.97
2023-01-21T00:45:59.753Z,998.97
2023-01-21T00:46:59.670Z,998.96
2023-01-21T00:47:59.653Z,998.95
2023-01-21T00:48:59.628Z,999.00
2023-01-21T00:49:59.610Z,999.01
2023-01-21T00:50:59.606Z,998.98
2023-01-21T00:51:59.565Z,999.00
2023-01-21T00:52:59.542Z,999.00
2023-01-21T00:53:59.525Z,999.05
2023-01-21T00:54:59.499Z,999.05
2023-01-21T00:55:59.487Z,999.08
2023-01-21T00:56:59.469Z,999.08
2023-01-21T00:57:59.441Z,999.10
2023-01-21T00:58:59.430Z,999.10
2023-01-21T00:59:59.412Z,999.07
2023-01-21T01:00:59.377Z,999.09
2023-01-21T01:01:59.357Z,999.12
2023-01-21T01:02:59.370Z,999.12
2023-01-21T01:03:59.317Z,999.14
2023-01-21T01:04:59.298Z,999.20
2023-01-21T01:05:59.271Z,999.14
2023-01-21T01:06:59.260Z,999.14
2023-01-21T01:07:59.231Z,999.18
2023-01-21T01:08:59.214Z,999.19
2023-01-21T01:09:59.199Z,999.22
2023-01-21T01:10:59.168Z,999.21
2023-01-21T01:11:59.152Z,999.29
2023-01-21T01:12:59.176Z,999.27
2023-01-21T01:13:59.108Z,999.29
2023-01-21T01:15:00.989Z,999.28
2023-01-21T01:15:59.117Z,999.37
2023-01-21T01:16:59.046Z,999.34
2023-01-21T01:17:59.024Z,999.32
2023-01-21T01:18:59.000Z,999.35
2023-01-21T01:19:58.984Z,999.39
2023-01-21T01:20:58.963Z,999.37
2023-01-21T01:21:58.957Z,999.38
2023-01-21T01:22:58.933Z,999.37
2023-01-21T01:23:58.906Z,999.40
2023-01-21T01:24:58.877Z,999.43
2023-01-21T01:25:58.888Z,999.43
2023-01-21T01:26:58.893Z,999.46
2023-01-21T01:27:58.818Z,999.43
2023-01-21T01:28:58.799Z,999.47
2023-01-21T01:29:58.782Z,999.47
2023-01-21T01:30:58.954Z,999.46
2023-01-21T01:31:58.734Z,999.49
2023-01-21T01:32:58.714Z,999.53
2023-01-21T01:33:58.689Z,999.57
2023-01-21T01:34:58.676Z,999.56
2023-01-21T01:35:58.657Z,999.60
2023-01-21T01:36:58.628Z,999.65
2023-01-21T01:37:58.611Z,999.65
2023-01-21T01:38:58.587Z,999.65
2023-01-21T01:39:58.568Z,999.65
2023-01-21T01:40:58.565Z,999.61
2023-01-21T01:41:58.530Z,999.69
2023-01-21T01:42:58.503Z,999.64
2023-01-21T01:43:58.483Z,999.65
2023-01-21T01:44:58.461Z,999.65
2023-01-21T01:45:58.438Z,999.69
2023-01-21T01:46:58.425Z,999.70
2023-01-21T01:47:58.417Z,999.72
2023-01-21T01:48:58.393Z,999.71
2023-01-21T01:49:58.354Z,999.73
2023-01-21T01:50:58.386Z,999.70
2023-01-21T01:51:58.324Z,999.72
2023-01-21T01:52:58.304Z,999.78
2023-01-21T01:53:58.274Z,999.79
2023-01-21T01:54:58.256Z,999.80
2023-01-21T01:55:58.239Z,999.85
2023-01-21T01:56:58.216Z,999.81
2023-01-21T01:57:58.193Z,999.84
2023-01-21T01:58:58.177Z,999.85
2023-01-21T01:59:58.150Z,999.88
2023-01-21T02:00:58.133Z,999.93
2023-01-21T02:01:58.163Z,999.91
2023-01-21T02:02:58.109Z,999.88
2023-01-21T02:03:58.065Z,999.89
2023-01-21T02:04:58.050Z,999.92
2023-01-21T02:05:58.024Z,999.94
2023-01-21T02:06:58.007Z,999.93
2023-01-21T02:07:57.987Z,999.97
2023-01-21T02:08:57.959Z,999.99
2023-01-21T02:09:57.941Z,1000.01
2023-01-21T02:10:57.938Z,1000.06
2023-01-21T02:11:57.897Z,1000.05
2023-01-21T02:12:57.881Z,1000.03
2023-01-21T02:13:57.885Z,1000.00
2023-01-21T02:14:57.838Z,1000.04
2023-01-21T02:15:57.880Z,1000.01
2023-01-21T02:16:57.802Z,1000.01
2023-01-21T02:17:57.772Z,999.98
2023-01-21T02:18:57.754Z,1000.02
2023-01-21T02:19:57.769Z,1000.03
2023-01-21T02:20:57.712Z,1000.06
2023-01-21T02:21:57.686Z,1000.08
2023-01-21T02:22:57.669Z,1000.07
2023-01-21T02:23:57.650Z,1000.11
2023-01-21T02:24:57.627Z,1000.08
2023-01-21T02:25:57.612Z,1000.09
2023-01-21T02:26:57.602Z,1000.11
2023-01-21T02:27:57.562Z,1000.09
2023-01-21T02:28:57.553Z,1000.11
2023-01-21T02:29:57.548Z,1000.04
2023-01-21T02:30:57.602Z,1000.07
2023-01-21T02:31:57.504Z,1000.10
2023-01-21T02:32:57.458Z,1000.10
2023-01-21T02:33:57.437Z,1000.10
2023-01-21T02:34:57.431Z,1000.11
2023-01-21T02:35:57.401Z,1000.14
2023-01-21T02:36:57.381Z,1000.12
2023-01-21T02:37:57.349Z,1000.17
2023-01-21T02:38:57.333Z,1000.14
2023-01-21T02:39:57.326Z,1000.16
2023-01-21T02:40:57.301Z,1000.19
2023-01-21T02:41:57.284Z,1000.21
2023-01-21T02:42:57.262Z,1000.25
2023-01-21T02:43:57.242Z,1000.29
2023-01-21T02:44:57.243Z,1000.24
2023-01-21T02:45:57.184Z,1000.28
2023-01-21T02:46:57.203Z,1000.26
2023-01-21T02:47:57.181Z,1000.27
2023-01-21T02:48:57.183Z,1000.28
2023-01-21T02:49:57.114Z,1000.21
2023-01-21T02:50:57.110Z,1000.23
2023-01-21T02:51:57.118Z,1000.24
2023-01-21T02:52:57.038Z,1000.24
2023-01-21T02:53:57.024Z,1000.29
2023-01-21T02:54:57.030Z,1000.28
2023-01-21T02:55:56.973Z,1000.33
2023-01-21T02:56:56.956Z,1000.36
2023-01-21T02:57:56.932Z,1000.40
2023-01-21T02:58:56.906Z,1000.36
2023-01-21T02:59:56.905Z,1000.35
2023-01-21T03:00:56.879Z,1000.41
2023-01-21T03:01:56.883Z,1000.39
2023-01-21T03:02:56.822Z,1000.42
2023-01-21T03:03:56.799Z,1000.46
2023-01-21T03:04:56.785Z,1000.46
2023-01-21T03:05:56.758Z,1000.45
2023-01-21T03:06:56.738Z,1000.43
2023-01-21T03:07:56.716Z,1000.43
2023-01-21T03:08:56.704Z,1000.47
2023-01-21T03:09:56.670Z,1000.46
2023-01-21T03:10:56.662Z,1000.53
2023-01-21T03:11:56.638Z,1000.61
2023-01-21T03:12:56.619Z,1000.55
2023-01-21T03:13:56.598Z,1000.54
2023-01-21T03:14:56.568Z,1000.60
2023-01-21T03:15:56.581Z,1000.60
2023-01-21T03:16:56.531Z,1000.59
2023-01-21T03:17:56.510Z,1000.59
2023-01-21T03:18:56.484Z,1000.58
2023-01-21T03:19:56.465Z,1000.59
2023-01-21T03:20:56.443Z,1000.61
2023-01-21T03:21:56.423Z,1000.62
2023-01-21T03:22:56.405Z,1000.62
2023-01-21T03:23:56.375Z,1000.62
2023-01-21T03:24:56.354Z,1000.62
2023-01-21T03:25:56.334Z,1000.63
2023-01-21T03:26:56.314Z,1000.61
2023-01-21T03:27:56.291Z,1000.62
2023-01-21T03:28:56.289Z,1000.67
2023-01-21T03:29:56.254Z,1000.65
2023-01-21T03:30:56.260Z,1000.67
2023-01-21T03:31:56.242Z,1000.65
2023-01-21T03:32:56.190Z,1000.65
2023-01-21T03:33:56.165Z,1000.66
2023-01-21T03:34:56.147Z,1000.66
2023-01-21T03:35:56.119Z,1000.65
2023-01-21T03:36:56.105Z,1000.66
2023-01-21T03:37:56.077Z,1000.65
2023-01-21T03:38:56.060Z,1000.64
2023-01-21T03:39:56.036Z,1000.67
2023-01-21T03:40:56.013Z,1000.71
2023-01-21T03:41:55.993Z,1000.65
2023-01-21T03:42:55.981Z,1000.67
2023-01-21T03:43:55.949Z,1000.70
2023-01-21T03:44:55.935Z,1000.79
2023-01-21T03:45:55.968Z,1000.74
2023-01-21T03:46:55.889Z,1000.78
2023-01-21T03:47:55.860Z,1000.81
2023-01-21T03:48:55.856Z,1000.78
2023-01-21T03:49:55.833Z,1000.82
2023-01-21T03:50:55.814Z,1000.86
2023-01-21T03:51:55.777Z,1000.91
2023-01-21T03:52:56.268Z,1000.84
2023-01-21T03:53:55.738Z,1000.91
2023-01-21T03:54:55.709Z,1000.92
2023-01-21T03:55:55.689Z,1000.90
2023-01-21T03:56:55.666Z,1000.89
2023-01-21T03:57:55.648Z,1000.87
2023-01-21T03:58:55.624Z,1000.92
2023-01-21T03:59:55.601Z,1000.90
2023-01-21T04:00:55.621Z,1000.92
2023-01-21T04:01:55.613Z,1000.92
2023-01-21T04:02:55.539Z,1000.91
2023-01-21T04:03:55.597Z,1000.95
2023-01-21T04:04:55.494Z,1000.98
2023-01-21T04:05:55.474Z,1001.00
2023-01-21T04:06:55.466Z,1000.96
2023-01-21T04:07:55.443Z,1001.00
2023-01-21T04:08:55.529Z,1000.99
2023-01-21T04:09:55.455Z,1001.01
2023-01-21T04:10:55.454Z,1001.02
2023-01-21T04:11:55.459Z,1001.03
2023-01-21T04:12:55.392Z,1001.00
2023-01-21T04:13:55.395Z,1000.97
2023-01-21T04:14:55.316Z,1000.99
2023-01-21T04:15:55.330Z,1001.00
2023-01-21T04:16:55.241Z,1001.02
2023-01-21T04:17:55.281Z,1001.05
2023-01-21T04:18:55.307Z,1001.09
2023-01-21T04:19:55.336Z,1001.09
2023-01-21T04:20:55.226Z,1001.09
2023-01-21T04:21:55.198Z,1001.08
2023-01-21T04:22:55.128Z,1001.07
2023-01-21T04:23:55.343Z,1001.11
2023-01-21T04:24:55.133Z,1001.12
2023-01-21T04:25:55.069Z,1001.07
2023-01-21T04:26:55.028Z,1001.06
2023-01-21T04:27:54.996Z,1001.06
2023-01-21T04:28:54.981Z,1001.11
2023-01-21T04:29:54.955Z,1001.11
2023-01-21T04:30:54.972Z,1001.06
2023-01-21T04:31:55.045Z,1001.10
2023-01-21T04:32:54.889Z,1001.06
2023-01-21T04:33:54.905Z,1001.04
2023-01-21T04:34:54.853Z,1001.05
2023-01-21T04:35:54.836Z,1001.09
2023-01-21T04:36:54.866Z,1001.06
2023-01-21T04:37:54.877Z,1001.07
2023-01-21T04:38:54.897Z,1001.02
2023-01-21T04:39:54.793Z,1001.05
2023-01-21T04:40:54.716Z,1001.04
2023-01-21T04:41:54.698Z,1001.02
2023-01-21T04:42:54.672Z,1001.05
2023-01-21T04:43:54.656Z,1001.04
2023-01-21T04:44:54.639Z,1001.05
2023-01-21T04:45:54.665Z,1001.08
2023-01-21T04:46:54.597Z,1001.12
2023-01-21T04:47:54.596Z,1001.09
2023-01-21T04:48:54.559Z,1001.12
2023-01-21T04:49:54.530Z,1001.09
2023-01-21T04:50:54.521Z,1001.12
2023-01-21T04:51:54.542Z,1001.09
2023-01-21T04:52:54.459Z,1001.08
2023-01-21T04:53:54.438Z,1001.13
2023-01-21T04:54:54.416Z,1001.07
2023-01-21T04:55:54.390Z,1001.07
2023-01-21T04:56:54.428Z,1001.10
2023-01-21T04:57:54.343Z,1001.04
2023-01-21T04:58:54.393Z,1001.07
2023-01-21T04:59:54.377Z,1001.07
2023-01-21T05:00:54.382Z,1001.05
2023-01-21T05:01:54.778Z,1001.07
2023-01-21T05:02:54.293Z,1001.02
2023-01-21T05:03:54.266Z,1001.06
2023-01-21T05:04:54.210Z,1001.06
2023-01-21T05:05:54.223Z,1001.07
2023-01-21T05:06:54.149Z,1001.10
2023-01-21T05:07:54.191Z,1001.10
2023-01-21T05:08:54.192Z,1001.11
2023-01-21T05:09:54.095Z,1001.10
2023-01-21T05:10:54.066Z,1001.15
2023-01-21T05:11:54.037Z,1001.15
2023-01-21T05:12:54.021Z,1001.15
2023-01-21T05:13:54.076Z,1001.16
2023-01-21T05:14:54.068Z,1001.14
2023-01-21T05:15:53.983Z,1001.17
2023-01-21T05:16:54.000Z,1001.15
2023-01-21T05:17:53.986Z,1001.14
2023-01-21T05:18:53.947Z,1001.14
2023-01-21T05:19:53.899Z,1001.15
2023-01-21T05:20:53.862Z,1001.14
2023-01-21T05:21:54.008Z,1001.18
2023-01-21T05:22:53.841Z,1001.18
2023-01-21T05:23:53.793Z,1001.18
2023-01-21T05:24:53.752Z,1001.24
2023-01-21T05:25:53.731Z,1001.25
2023-01-21T05:26:53.763Z,1001.24
2023-01-21T05:27:54.335Z,1001.22
2023-01-21T05:28:53.717Z,1001.23
2023-01-21T05:29:53.729Z,1001.23
2023-01-21T05:30:53.719Z,1001.25
2023-01-21T05:31:53.745Z,1001.27
2023-01-21T05:32:53.606Z,1001.27
2023-01-21T05:33:53.595Z,1001.29
2023-01-21T05:34:53.665Z,1001.23
2023-01-21T05:35:53.761Z,1001.21
2023-01-21T05:36:53.545Z,1001.20
2023-01-21T05:37:53.601Z,1001.25
2023-01-21T05:38:53.513Z,1001.27
2023-01-21T05:39:53.513Z,1001.23
2023-01-21T05:40:53.460Z,1001.27
2023-01-21T05:41:53.680Z,1001.32
2023-01-21T05:42:53.448Z,1001.30
2023-01-21T05:43:53.334Z,1001.33
2023-01-21T05:44:53.370Z,1001.38
2023-01-21T05:45:53.397Z,1001.41
2023-01-21T05:46:53.386Z,1001.41
2023-01-21T05:47:53.369Z,1001.42
2023-01-21T05:48:53.278Z,1001.43
2023-01-21T05:49:53.196Z,1001.46
2023-01-21T05:50:53.280Z,1001.48
2023-01-21T05:51:53.173Z,1001.48
2023-01-21T05:52:53.142Z,1001.49
2023-01-21T05:53:53.147Z,1001.50
2023-01-21T05:55:01.796Z,1001.55
2023-01-21T05:55:53.075Z,1001.56
2023-01-21T05:56:53.037Z,1001.60
2023-01-21T05:57:53.049Z,1001.55
2023-01-21T05:58:52.974Z,1001.58
2023-01-21T05:59:52.957Z,1001.59
2023-01-21T06:00:52.927Z,1001.61
2023-01-21T06:01:52.968Z,1001.63
2023-01-21T06:02:52.878Z,1001.66
2023-01-21T06:03:52.909Z,1001.68
2023-01-21T06:04:52.891Z,1001.66
2023-01-21T06:05:52.819Z,1001.70
2023-01-21T06:06:52.830Z,1001.68
2023-01-21T06:07:52.827Z,1001.68
2023-01-21T06:08:52.825Z,1001.67
2023-01-21T06:09:52.737Z,1001.72
2023-01-21T06:10:52.702Z,1001.77
2023-01-21T06:11:52.732Z,1001.77
2023-01-21T06:12:52.690Z,1001.77
2023-01-21T06:13:52.712Z,1001.73
2023-01-21T06:14:52.883Z,1001.72
2023-01-21T06:15:52.685Z,1001.76
2023-01-21T06:16:52.591Z,1001.73
2023-01-21T06:17:52.616Z,1001.81
2023-01-21T06:18:52.629Z,1001.76
2023-01-21T06:19:52.544Z,1001.82
2023-01-21T06:20:52.511Z,1001.84
2023-01-21T06:21:52.506Z,1001.82
2023-01-21T06:22:52.433Z,1001.84
2023-01-21T06:23:52.566Z,1001.84
2023-01-21T06:26:00.051Z,1001.88
2023-01-21T06:27:57.109Z,1001.87
2023-01-21T06:28:57.077Z,1001.91
2023-01-21T06:31:04.028Z,1001.91
2023-01-21T06:32:04.135Z,1001.91
2023-01-21T06:33:03.938Z,1001.89
2023-01-21T06:34:03.884Z,1001.89
2023-01-21T06:35:03.848Z,1001.94
2023-01-21T06:36:03.838Z,1001.96
2023-01-21T06:37:03.803Z,1001.96
2023-01-21T06:38:03.783Z,1002.00
2023-01-21T06:39:03.779Z,1001.96
2023-01-21T06:40:03.747Z,1001.97
2023-01-21T06:41:03.770Z,1001.98
2023-01-21T06:42:03.726Z,1002.01
2023-01-21T06:43:03.667Z,1002.00
2023-01-21T06:44:03.650Z,1002.06
2023-01-21T06:45:03.627Z,1002.05
2023-01-21T06:46:04.053Z,1002.06
2023-01-21T06:47:03.766Z,1002.08
2023-01-21T06:48:03.567Z,1002.06
2023-01-21T06:49:03.531Z,1002.04
2023-01-21T06:50:03.508Z,1002.11
2023-01-21T06:51:03.524Z,1002.05
2023-01-21T06:52:03.478Z,1002.08
2023-01-21T06:53:03.433Z,1002.08
2023-01-21T06:54:03.410Z,1001.99
2023-01-21T06:55:03.384Z,1002.05
2023-01-21T06:56:03.363Z,1002.03
2023-01-21T06:57:03.367Z,1002.10
2023-01-21T06:58:03.329Z,1002.11
2023-01-21T06:59:03.306Z,1002.10
2023-01-21T07:00:03.848Z,1002.10
2023-01-21T07:01:03.245Z,1002.12
2023-01-21T07:02:03.223Z,1002.13
2023-01-21T07:03:03.225Z,1002.15
2023-01-21T07:04:03.202Z,1002.16
2023-01-21T07:05:03.228Z,1002.20
2023-01-21T07:06:03.137Z,1002.25
2023-01-21T07:07:03.125Z,1002.24
2023-01-21T07:08:03.098Z,1002.24
2023-01-21T07:09:03.063Z,1002.23
2023-01-21T07:10:03.071Z,1002.32
2023-01-21T07:11:03.021Z,1002.28
2023-01-21T07:12:02.996Z,1002.33
2023-01-21T07:13:02.978Z,1002.32
2023-01-21T07:14:02.952Z,1002.33
2023-01-21T07:15:02.919Z,1002.33
2023-01-21T07:16:04.666Z,1002.35
2023-01-21T07:17:02.881Z,1002.36
2023-01-21T07:18:02.859Z,1002.33
2023-01-21T07:19:02.857Z,1002.38
2023-01-21T07:20:02.805Z,1002.36
2023-01-21T07:21:02.797Z,1002.36
2023-01-21T07:22:02.760Z,1002.35
2023-01-21T07:23:02.735Z,1002.37
2023-01-21T07:24:02.713Z,1002.39
2023-01-21T07:25:02.704Z,1002.37
2023-01-21T07:26:02.671Z,1002.39
2023-01-21T07:27:02.663Z,1002.39
2023-01-21T07:28:02.621Z,1002.43
2023-01-21T07:29:02.595Z,1002.37
2023-01-21T07:30:02.575Z,1002.37
2023-01-21T07:31:02.611Z,1002.40
2023-01-21T07:32:02.598Z,1002.42
2023-01-21T07:33:02.503Z,1002.42
2023-01-21T07:34:02.488Z,1002.45
2023-01-21T07:35:02.496Z,1002.46
2023-01-21T07:36:02.438Z,1002.48
2023-01-21T07:37:02.418Z,1002.50
2023-01-21T07:38:02.401Z,1002.48
2023-01-21T07:39:02.406Z,1002.49
2023-01-21T07:40:02.376Z,1002.50
2023-01-21T07:41:02.339Z,1002.51
2023-01-21T07:42:02.300Z,1002.51
2023-01-21T07:43:02.277Z,1002.50
2023-01-21T07:44:02.279Z,1002.49
2023-01-21T07:45:02.229Z,1002.51
2023-01-21T07:46:02.211Z,1002.52
2023-01-21T07:47:02.187Z,1002.57
2023-01-21T07:48:02.167Z,1002.55
2023-01-21T07:49:02.140Z,1002.56
2023-01-21T07:50:02.120Z,1002.55
2023-01-21T07:51:02.156Z,1002.59
2023-01-21T07:52:02.077Z,1002.57
2023-01-21T07:53:02.058Z,1002.60
2023-01-21T07:54:02.028Z,1002.64
2023-01-21T07:55:02.002Z,1002.63
2023-01-21T07:56:01.984Z,1002.66
2023-01-21T07:57:01.974Z,1002.65
2023-01-21T07:58:01.937Z,1002.70
2023-01-21T07:59:01.915Z,1002.70
2023-01-21T08:00:01.931Z,1002.72
2023-01-21T08:01:01.868Z,1002.74
2023-01-21T08:02:01.953Z,1002.76
2023-01-21T08:03:01.834Z,1002.73
2023-01-21T08:04:01.808Z,1002.78
2023-01-21T08:05:02.036Z,1002.72
2023-01-21T08:06:01.895Z,1002.79
2023-01-21T08:07:01.774Z,1002.76
2023-01-21T08:08:01.722Z,1002.75
2023-01-21T08:09:01.747Z,1002.74
2023-01-21T08:10:01.822Z,1002.71
2023-01-21T08:11:01.746Z,1002.72
2023-01-21T08:12:01.707Z,1002.75
2023-01-21T08:13:01.742Z,1002.73
2023-01-21T08:14:01.605Z,1002.72
2023-01-21T08:15:01.741Z,1002.72
2023-01-21T08:16:01.663Z,1002.73
2023-01-21T08:17:01.631Z,1002.75
2023-01-21T08:18:09.907Z,1002.75
2023-01-21T08:20:17.282Z,1002.75
2023-01-21T08:21:08.218Z,1002.76
2023-01-21T08:23:19.083Z,1002.76
2023-01-21T08:24:27.576Z,1002.74
2023-01-21T16:52:32.493Z,1004.19
2023-01-21T16:53:32.679Z,1004.21
2023-01-21T18:48:33.104Z,1004.28
2023-01-21T18:49:33.070Z,1004.29
2023-01-21T18:51:38.512Z,1004.24
2023-01-21T18:52:38.467Z,1004.23
2023-01-21T18:53:38.449Z,1004.21
2023-01-21T18:54:38.424Z,1004.24
2023-01-21T18:55:38.410Z,1004.22
2023-01-21T18:56:38.422Z,1004.28
2023-01-21T18:57:38.380Z,1004.27
2023-01-21T18:58:38.349Z,1004.25
2023-01-21T18:59:38.627Z,1004.30
2023-01-21T19:00:38.387Z,1004.31
2023-01-21T19:01:38.425Z,1004.29
2023-01-21T19:02:38.267Z,1004.28
2023-01-21T19:03:38.248Z,1004.25
2023-01-21T19:04:38.231Z,1004.18
2023-01-21T19:05:38.239Z,1004.26
2023-01-21T19:06:38.188Z,1004.25
2023-01-21T19:07:38.175Z,1004.23
2023-01-21T19:08:38.146Z,1004.28
2023-01-21T19:09:38.124Z,1004.25
2023-01-21T19:10:38.108Z,1004.24
2023-01-21T19:11:38.086Z,1004.20
2023-01-21T19:12:38.066Z,1004.24
2023-01-21T19:13:38.057Z,1004.23
2023-01-21T19:14:38.032Z,1004.26
2023-01-21T19:15:38.019Z,1004.24
2023-01-21T19:16:37.991Z,1004.23
2023-01-21T19:17:37.969Z,1004.25
2023-01-21T19:18:37.946Z,1004.23
2023-01-21T19:19:37.952Z,1004.24
2023-01-21T19:20:37.906Z,1004.22
2023-01-21T19:21:37.887Z,1004.24
2023-01-21T19:22:37.864Z,1004.20
2023-01-21T19:23:37.872Z,1004.22
2023-01-21T19:24:37.824Z,1004.18
2023-01-21T19:25:37.802Z,1004.25
2023-01-21T19:26:37.795Z,1004.22
2023-01-21T19:27:37.763Z,1004.21
2023-01-21T19:28:37.745Z,1004.21
2023-01-21T19:29:37.737Z,1004.22
2023-01-21T19:30:37.707Z,1004.24
2023-01-21T19:31:37.733Z,1004.23
2023-01-21T19:32:37.667Z,1004.18
2023-01-21T19:33:37.644Z,1004.16
2023-01-21T19:34:37.624Z,1004.17
2023-01-21T19:35:37.603Z,1004.16
2023-01-21T19:36:37.586Z,1004.14
2023-01-21T19:37:37.567Z,1004.13
2023-01-21T19:38:37.547Z,1004.15
2023-01-21T19:39:37.528Z,1004.13
2023-01-21T19:40:37.530Z,1004.12
2023-01-21T19:41:37.481Z,1004.14
2023-01-21T19:42:37.476Z,1004.18
2023-01-21T19:43:37.444Z,1004.16
2023-01-21T19:44:37.427Z,1004.17
2023-01-21T19:45:37.401Z,1004.17
2023-01-21T19:46:37.441Z,1004.17
2023-01-21T19:47:37.364Z,1004.22
2023-01-21T19:48:37.345Z,1004.13
2023-01-21T19:49:37.325Z,1004.16
2023-01-21T19:50:37.306Z,1004.12
2023-01-21T19:51:37.295Z,1004.11
2023-01-21T19:52:37.264Z,1004.10
2023-01-21T19:53:37.261Z,1004.11
2023-01-21T19:54:37.222Z,1004.10
2023-01-21T19:55:37.205Z,1004.12
2023-01-21T19:56:37.191Z,1004.11
2023-01-21T19:57:37.160Z,1004.08
2023-01-21T19:58:37.149Z,1004.06
2023-01-21T19:59:37.122Z,1004.09
2023-01-21T20:00:37.153Z,1004.05
2023-01-21T20:01:37.110Z,1004.03
2023-01-21T20:02:37.068Z,1004.00
2023-01-21T20:03:37.886Z,1004.02
2023-01-21T20:04:37.022Z,1004.00
2023-01-21T20:05:37.007Z,1003.94
2023-01-21T20:06:36.982Z,1004.03
2023-01-21T20:07:36.966Z,1004.00
2023-01-21T20:08:36.948Z,1003.93
2023-01-21T20:09:36.920Z,1003.90
2023-01-21T20:10:36.923Z,1003.89
2023-01-21T20:11:36.883Z,1003.92
2023-01-21T20:12:36.862Z,1003.91
2023-01-21T20:13:36.863Z,1003.89
2023-01-21T20:14:36.821Z,1003.88
2023-01-21T20:15:36.801Z,1003.89
2023-01-21T20:16:36.830Z,1003.90
2023-01-21T20:17:36.762Z,1003.88
2023-01-21T20:18:36.746Z,1003.90
2023-01-21T20:19:36.722Z,1003.91
2023-01-21T20:20:36.742Z,1003.85
2023-01-21T20:21:42.837Z,1003.87
2023-01-21T20:22:36.660Z,1003.85
2023-01-21T20:23:36.649Z,1003.86
2023-01-21T20:24:36.621Z,1003.82
2023-01-21T20:25:36.657Z,1003.84
2023-01-21T20:26:36.579Z,1003.83
2023-01-21T20:27:36.561Z,1003.85
2023-01-21T20:28:36.542Z,1003.86
2023-01-21T20:29:37.757Z,1003.88
2023-01-21T20:30:36.527Z,1003.84
2023-01-21T20:31:36.524Z,1003.87
2023-01-21T20:32:36.467Z,1003.85
2023-01-21T20:33:36.452Z,1003.88
2023-01-21T20:34:36.424Z,1003.84
2023-01-21T20:35:36.402Z,1003.89
2023-01-21T20:36:36.384Z,1003.86
2023-01-21T20:37:36.360Z,1003.86
2023-01-21T20:38:36.343Z,1003.89
2023-01-21T20:39:36.343Z,1003.89
2023-01-21T20:40:36.324Z,1003.91
2023-01-21T20:41:36.284Z,1003.86
2023-01-21T20:42:36.272Z,1003.89
2023-01-21T20:43:36.238Z,1003.82
2023-01-21T20:44:36.219Z,1003.85
2023-01-21T20:45:36.222Z,1003.90
2023-01-21T20:46:36.199Z,1003.85
2023-01-21T20:47:38.763Z,1003.87
2023-01-21T20:48:36.142Z,1003.82
2023-01-21T20:49:36.118Z,1003.86
2023-01-21T20:50:36.110Z,1003.84
2023-01-21T20:51:36.079Z,1003.82
2023-01-21T20:52:36.060Z,1003.82
2023-01-21T20:53:36.064Z,1003.83
2023-01-21T20:54:36.022Z,1003.87
2023-01-21T20:55:36.005Z,1003.84
2023-01-21T20:56:35.984Z,1003.81
2023-01-21T20:57:35.961Z,1003.85
2023-01-21T20:58:35.936Z,1003.87
2023-01-21T20:59:35.935Z,1003.84
2023-01-21T21:00:36.041Z,1003.86
2023-01-21T21:01:35.876Z,1003.85
2023-01-21T21:02:35.947Z,1003.86
2023-01-21T21:03:35.832Z,1003.86
2023-01-21T21:04:35.812Z,1003.80
2023-01-21T21:05:35.844Z,1003.84
2023-01-21T21:06:35.774Z,1003.82
2023-01-21T21:07:35.749Z,1003.82
2023-01-21T21:08:35.734Z,1003.80
2023-01-21T21:09:35.720Z,1003.82
2023-01-21T21:10:35.704Z,1003.75
2023-01-21T21:11:35.674Z,1003.73
2023-01-21T21:12:35.679Z,1003.73
2023-01-21T21:13:35.625Z,1003.74
2023-01-21T21:14:35.611Z,1003.71
2023-01-21T21:15:35.610Z,1003.75
2023-01-21T21:16:35.645Z,1003.74
2023-01-21T21:17:35.545Z,1003.74
2023-01-21T21:18:35.537Z,1003.71
2023-01-21T21:19:35.510Z,1003.72
2023-01-21T21:20:35.517Z,1003.69
2023-01-21T21:21:35.471Z,1003.70
2023-01-21T21:22:35.445Z,1003.67
2023-01-21T21:23:35.428Z,1003.67
2023-01-21T21:24:35.404Z,1003.68
2023-01-21T21:25:35.382Z,1003.68
2023-01-21T21:26:35.363Z,1003.64
2023-01-21T21:27:35.343Z,1003.62
2023-01-21T21:28:35.326Z,1003.69
2023-01-21T21:29:35.303Z,1003.65
2023-01-21T21:30:35.309Z,1003.62
2023-01-21T21:31:35.307Z,1003.67
2023-01-21T21:32:35.243Z,1003.63
2023-01-21T21:33:35.231Z,1003.62
2023-01-21T21:34:35.202Z,1003.62
2023-01-21T21:35:35.187Z,1003.57
2023-01-21T21:36:35.157Z,1003.60
2023-01-21T21:37:35.140Z,1003.60
2023-01-21T21:38:35.116Z,1003.57
2023-01-21T21:39:35.105Z,1003.59
2023-01-21T21:40:35.077Z,1003.60
2023-01-21T21:41:35.069Z,1003.59
2023-01-21T21:42:35.036Z,1003.61
2023-01-21T21:43:35.020Z,1003.56
2023-01-21T21:44:34.993Z,1003.56
2023-01-21T21:45:35.000Z,1003.56
2023-01-21T21:46:34.958Z,1003.58
2023-01-21T21:47:34.960Z,1003.57
2023-01-21T21:48:34.913Z,1003.55
2023-01-21T21:49:34.891Z,1003.54
2023-01-21T21:50:34.881Z,1003.56
2023-01-21T21:51:34.854Z,1003.57
2023-01-21T21:52:34.832Z,1003.54
2023-01-21T21:53:34.815Z,1003.53
2023-01-21T21:54:34.790Z,1003.48
2023-01-21T21:55:34.776Z,1003.45
2023-01-21T21:56:34.751Z,1003.48
2023-01-21T21:57:34.730Z,1003.48
2023-01-21T21:58:34.711Z,1003.48
2023-01-21T21:59:34.692Z,1003.46
2023-01-21T22:00:34.681Z,1003.44
2023-01-21T22:01:34.677Z,1003.44
2023-01-21T22:02:34.714Z,1003.47
2023-01-21T22:03:34.609Z,1003.46
2023-01-21T22:04:34.588Z,1003.41
2023-01-21T22:05:34.563Z,1003.42
2023-01-21T22:06:34.549Z,1003.43
2023-01-21T22:07:34.526Z,1003.40
2023-01-21T22:08:34.503Z,1003.42
2023-01-21T22:09:34.481Z,1003.41
2023-01-21T22:10:34.467Z,1003.39
2023-01-21T22:11:34.454Z,1003.39
2023-01-21T22:12:34.419Z,1003.37
2023-01-21T22:13:34.400Z,1003.35
2023-01-21T22:14:34.380Z,1003.32
2023-01-21T22:15:34.369Z,1003.35
2023-01-21T22:16:34.471Z,1003.37
2023-01-21T22:17:34.353Z,1003.37
2023-01-21T22:18:34.375Z,1003.36
2023-01-21T22:19:36.277Z,1003.30
2023-01-21T22:20:34.312Z,1003.28
2023-01-21T22:21:34.281Z,1003.28
2023-01-21T22:22:34.220Z,1003.26
2023-01-21T22:23:34.195Z,1003.26
2023-01-21T22:24:34.174Z,1003.23
2023-01-21T22:25:34.154Z,1003.25
2023-01-21T22:26:34.133Z,1003.22
2023-01-21T22:27:34.111Z,1003.21
2023-01-21T22:28:34.096Z,1003.18
2023-01-21T22:29:34.071Z,1003.22
2023-01-21T22:30:34.110Z,1003.21
2023-01-21T22:31:34.206Z,1003.23
2023-01-21T22:32:34.016Z,1003.17
2023-01-21T22:33:33.987Z,1003.18
2023-01-21T22:34:33.972Z,1003.11
2023-01-21T22:35:33.949Z,1003.14
2023-01-21T22:36:33.943Z,1003.20